createdAt,value
2023-06-23T00:02:20.058Z,101763.97
2023-06-23T00:04:48.067Z,101768.42
2023-06-23T00:07:17.661Z,101763.16
2023-06-23T00:09:46.094Z,101758.85
2023-06-23T00:12:14.096Z,101760.77
2023-06-23T00:14:43.663Z,101762.08
2023-06-23T00:17:11.767Z,101763.14
2023-06-23T00:19:42.328Z,101761.33
2023-06-23T00:22:11.142Z,101765.60
2023-06-23T00:24:39.612Z,101770.73
2023-06-23T00:27:07.927Z,101772.27
2023-06-23T00:32:55.309Z,101778.46
2023-06-23T00:35:24.252Z,101783.87
2023-06-23T00:38:00.749Z,101791.54
2023-06-23T00:40:40.719Z,101792.96
2023-06-23T00:43:10.937Z,101794.11
2023-06-23T00:45:40.630Z,101793.52
2023-06-23T00:48:10.280Z,101792.08
2023-06-23T00:50:45.440Z,101791.91
2023-06-23T00:53:13.662Z,101792.63
2023-06-23T00:55:51.454Z,101796.88
2023-06-23T00:58:58.743Z,101797.34
2023-06-23T01:01:53.097Z,101798.91
2023-06-23T01:04:26.866Z,101794.90
2023-06-23T01:07:38.432Z,101789.64
2023-06-23T01:10:48.827Z,101786.09
2023-06-23T01:13:42.100Z,101780.84
2023-06-23T01:16:21.900Z,101776.17
2023-06-23T01:19:22.841Z,101775.13
2023-06-23T01:22:21.527Z,101775.66
2023-06-23T01:26:05.773Z,101776.10
2023-06-23T01:29:02.877Z,101772.89
2023-06-23T01:32:06.517Z,101774.67
2023-06-23T01:34:44.307Z,101769.41
2023-06-23T01:37:19.519Z,101771.41
2023-06-23T01:40:01.378Z,101774.41
2023-06-23T01:42:45.575Z,101781.73
2023-06-23T01:45:16.034Z,101778.48
2023-06-23T01:50:49.000Z,101781.15
2023-06-23T01:53:17.392Z,101786.50
2023-06-23T01:55:46.083Z,101784.80
2023-06-23T01:58:15.803Z,101782.40
2023-06-23T02:00:44.885Z,101783.08
2023-06-23T02:03:14.309Z,101785.30
2023-06-23T02:05:47.368Z,101781.54
2023-06-23T02:08:18.973Z,101777.48
2023-06-23T02:10:56.774Z,101776.80
2023-06-23T02:13:29.762Z,101775.81
2023-06-23T02:16:01.227Z,101780.75
2023-06-23T02:18:37.535Z,101782.33
2023-06-23T02:21:09.196Z,101780.23
2023-06-23T02:23:40.602Z,101782.37
2023-06-23T02:26:12.527Z,101785.52
2023-06-23T02:28:40.914Z,101787.87
2023-06-23T02:31:09.828Z,101788.82
2023-06-23T02:33:39.365Z,101791.64
2023-06-23T02:36:10.826Z,101799.14
2023-06-23T02:38:41.529Z,101796.77
2023-06-23T02:41:11.580Z,101792.06
2023-06-23T02:43:49.245Z,101801.66
2023-06-23T02:46:21.285Z,101807.61
2023-06-23T02:48:52.701Z,101807.73
2023-06-23T02:51:24.372Z,101810.14
2023-06-23T02:54:03.477Z,101807.52
2023-06-23T02:56:36.216Z,101802.30
2023-06-23T02:59:07.628Z,101800.32
2023-06-23T03:01:40.544Z,101801.63
2023-06-23T03:04:08.875Z,101803.99
2023-06-23T03:06:37.474Z,101802.42
2023-06-23T03:09:05.595Z,101798.38
2023-06-23T03:11:35.086Z,101793.30
2023-06-23T03:14:18.491Z,101792.05
2023-06-23T03:16:57.427Z,101791.23
2023-06-23T03:19:51.107Z,101792.30
2023-06-23T03:22:32.345Z,101795.73
2023-06-23T03:25:11.188Z,101797.70
2023-06-23T03:27:41.913Z,101803.45
2023-06-23T03:30:22.165Z,101815.40
2023-06-23T03:32:55.609Z,101818.67
2023-06-23T03:35:29.407Z,101820.34
2023-06-23T03:38:04.523Z,101822.55
2023-06-23T03:40:38.243Z,101827.21
2023-06-23T03:43:30.405Z,101837.90
2023-06-23T03:46:02.785Z,101840.02
2023-06-23T03:48:34.239Z,101839.77
2023-06-23T03:51:04.732Z,101840.23
2023-06-23T03:53:35.655Z,101841.66
2023-06-23T03:56:05.888Z,101839.84
2023-06-23T03:58:35.691Z,101836.52
2023-06-23T04:01:05.831Z,101841.09
2023-06-23T04:03:37.700Z,101844.64
2023-06-23T04:06:08.842Z,101841.99
2023-06-23T04:08:39.417Z,101838.89
2023-06-23T04:11:10.069Z,101837.64
2023-06-23T04:13:39.364Z,101843.02
2023-06-23T04:16:09.996Z,101843.41
2023-06-23T04:18:43.085Z,101849.22
2023-06-23T04:21:13.411Z,101847.81
2023-06-23T04:23:43.348Z,101849.92
2023-06-23T04:26:14.394Z,101856.10
2023-06-23T04:28:45.099Z,101849.04
2023-06-23T04:31:15.384Z,101851.63
2023-06-23T04:33:43.877Z,101862.36
2023-06-23T04:36:17.791Z,101865.20
2023-06-23T04:38:59.977Z,101867.58
2023-06-23T04:41:30.488Z,101864.70
2023-06-23T04:44:01.939Z,101860.30
2023-06-23T04:46:35.565Z,101857.46
2023-06-23T04:49:09.388Z,101860.04
2023-06-23T04:52:00.399Z,101862.71
2023-06-23T04:54:40.602Z,101869.48
2023-06-23T04:57:12.521Z,101870.82
2023-06-23T04:59:53.643Z,101870.08
2023-06-23T05:02:29.446Z,101873.54
2023-06-23T05:05:00.794Z,101874.63
2023-06-23T05:07:30.801Z,101873.27
2023-06-23T05:10:01.017Z,101868.56
2023-06-23T05:12:34.280Z,101865.16
2023-06-23T05:15:03.992Z,101862.17
2023-06-23T05:17:53.814Z,101859.07
2023-06-23T05:20:25.279Z,101855.46
2023-06-23T05:22:57.423Z,101859.17
2023-06-23T05:25:31.554Z,101870.95
2023-06-23T05:28:02.215Z,101873.60
2023-06-23T05:30:32.168Z,101873.89
2023-06-23T05:33:09.301Z,101874.52
2023-06-23T05:35:45.895Z,101872.84
2023-06-23T05:38:21.286Z,101880.58
2023-06-23T05:40:50.212Z,101886.02
2023-06-23T05:43:19.041Z,101880.39
2023-06-23T05:45:55.755Z,101879.31
2023-06-23T05:48:31.611Z,101877.69
2023-06-23T05:51:03.399Z,101871.20
2023-06-23T05:53:33.502Z,101866.12
2023-06-23T05:56:26.833Z,101871.05
2023-06-23T05:59:00.873Z,101877.67
2023-06-23T06:01:42.280Z,101876.67
2023-06-23T06:04:19.117Z,101876.77
2023-06-23T06:07:03.261Z,101881.73
2023-06-23T06:09:36.005Z,101891.67
2023-06-23T06:12:05.933Z,101894.73
2023-06-23T06:14:44.412Z,101896.30
2023-06-23T06:17:28.571Z,101898.04
2023-06-23T06:20:01.886Z,101895.41
2023-06-23T06:22:33.624Z,101898.42
2023-06-23T06:25:04.924Z,101896.69
2023-06-23T06:27:36.361Z,101897.02
2023-06-23T06:30:09.830Z,101903.08
2023-06-23T06:32:44.735Z,101908.33
2023-06-23T06:35:16.794Z,101914.00
2023-06-23T06:37:53.901Z,101920.17
2023-06-23T06:40:28.784Z,101918.25
2023-06-23T06:43:30.242Z,101917.46
2023-06-23T06:48:44.327Z,101927.38
2023-06-23T06:51:14.379Z,101921.58
2023-06-23T06:53:42.910Z,101925.64
2023-06-23T06:56:12.813Z,101925.73
2023-06-23T06:58:41.824Z,101926.40
2023-06-23T07:01:22.494Z,101927.17
2023-06-23T07:03:52.003Z,101929.65
2023-06-23T07:06:20.181Z,101928.60
2023-06-23T07:08:48.824Z,101925.95
2023-06-23T07:11:17.048Z,101924.80
2023-06-23T07:13:45.582Z,101927.41
2023-06-23T07:16:14.775Z,101935.12
2023-06-23T07:18:43.170Z,101940.08
2023-06-23T07:21:12.024Z,101945.31
2023-06-23T07:23:39.968Z,101949.13
2023-06-23T07:26:12.678Z,101957.25
2023-06-23T07:28:41.379Z,101958.35
2023-06-23T07:31:09.825Z,101965.09
2023-06-23T07:33:41.105Z,101962.41
2023-06-23T07:36:09.532Z,101962.61
2023-06-23T07:38:37.840Z,101959.39
2023-06-23T07:41:07.590Z,101959.05
2023-06-23T07:43:36.182Z,101958.23
2023-06-23T07:46:04.320Z,101958.65
2023-06-23T07:48:32.440Z,101961.25
2023-06-23T07:51:00.601Z,101962.67
2023-06-23T07:53:28.550Z,101961.08
2023-06-23T07:55:56.736Z,101962.40
2023-06-23T07:58:27.995Z,101962.46
2023-06-23T08:01:09.660Z,101969.30
2023-06-23T08:03:38.227Z,101970.20
2023-06-23T08:06:06.870Z,101971.73
2023-06-23T08:08:35.409Z,101971.21
2023-06-23T08:11:07.135Z,101971.64
2023-06-23T08:13:39.008Z,101966.18
2023-06-23T08:16:10.687Z,101959.18
2023-06-23T08:18:39.785Z,101958.92
2023-06-23T08:21:33.194Z,101958.49
2023-06-23T08:24:02.610Z,101960.05
2023-06-23T08:26:35.296Z,101965.60
2023-06-23T08:29:08.688Z,101966.04
2023-06-23T08:31:39.987Z,101968.41
2023-06-23T08:34:08.789Z,101972.13
2023-06-23T08:36:36.963Z,101972.80
2023-06-23T08:39:05.225Z,101973.11
2023-06-23T08:41:35.648Z,101968.73
2023-06-23T08:44:15.703Z,101969.63
2023-06-23T08:47:04.447Z,101969.42
2023-06-23T08:49:44.002Z,101970.30
2023-06-23T08:52:18.701Z,101967.98
2023-06-23T08:54:47.318Z,101969.88
2023-06-23T08:57:17.679Z,101969.62
2023-06-23T08:59:49.624Z,101971.63
2023-06-23T09:02:18.005Z,101973.19
2023-06-23T09:04:56.929Z,101974.82
2023-06-23T09:07:34.315Z,101973.59
2023-06-23T09:10:02.818Z,101966.03
2023-06-23T09:12:36.060Z,101964.77
2023-06-23T09:15:04.906Z,101967.62
2023-06-23T09:17:40.378Z,101962.27
2023-06-23T09:20:17.823Z,101962.27
2023-06-23T09:22:50.092Z,101962.48
2023-06-23T09:25:48.987Z,101969.23
2023-06-23T09:28:30.747Z,101976.84
2023-06-23T09:31:11.722Z,101975.87
2023-06-23T09:33:55.741Z,101973.41
2023-06-23T09:36:28.876Z,101966.09
2023-06-23T09:39:06.696Z,101962.28
2023-06-23T09:41:52.179Z,101964.44
2023-06-23T09:44:58.632Z,101970.99
2023-06-23T09:47:27.937Z,101978.45
2023-06-23T09:49:55.943Z,101975.88
2023-06-23T09:52:28.867Z,101978.09
2023-06-23T09:55:01.624Z,101979.38
2023-06-23T09:57:31.890Z,101975.80
2023-06-23T10:00:01.405Z,101977.82
2023-06-23T10:02:40.165Z,101976.42
2023-06-23T10:08:17.896Z,101972.47
2023-06-23T10:10:53.978Z,101973.53
2023-06-23T10:13:27.812Z,101977.34
2023-06-23T10:15:56.711Z,101979.10
2023-06-23T10:18:37.211Z,101976.12
2023-06-23T10:21:08.404Z,101976.19
2023-06-23T10:23:36.983Z,101980.77
2023-06-23T10:26:09.457Z,101976.88
2023-06-23T10:28:40.212Z,101976.66
2023-06-23T10:31:09.004Z,101977.02
2023-06-23T10:33:39.837Z,101981.48
2023-06-23T10:36:49.625Z,101984.59
2023-06-23T10:39:20.261Z,101986.79
2023-06-23T10:41:55.371Z,101985.23
2023-06-23T10:44:25.610Z,101980.29
2023-06-23T10:46:55.368Z,101983.41
2023-06-23T10:49:25.410Z,101984.35
2023-06-23T10:52:02.121Z,101992.58
2023-06-23T10:54:31.675Z,101990.24
2023-06-23T10:57:17.044Z,101988.71
2023-06-23T11:00:00.255Z,101991.76
2023-06-23T11:02:31.459Z,101990.30
2023-06-23T11:05:17.890Z,101989.90
2023-06-23T11:08:14.074Z,101984.61
2023-06-23T11:11:01.017Z,101982.95
2023-06-23T11:13:49.090Z,101985.07
2023-06-23T11:16:19.732Z,101986.69
2023-06-23T11:18:53.022Z,101987.34
2023-06-23T11:21:42.623Z,101988.13
2023-06-23T11:24:10.508Z,101984.20
2023-06-23T11:27:04.115Z,101981.55
2023-06-23T11:29:38.508Z,101980.47
2023-06-23T11:32:27.167Z,101973.19
2023-06-23T11:35:08.248Z,101971.64
2023-06-23T11:37:40.610Z,101966.52
2023-06-23T11:40:12.879Z,101962.67
2023-06-23T11:55:04.285Z,101961.14
2023-06-23T11:57:33.478Z,101957.10
2023-06-23T12:03:25.056Z,101964.15
2023-06-23T12:05:54.291Z,101962.77
2023-06-23T12:08:29.121Z,101960.60
2023-06-23T12:11:15.346Z,101968.90
2023-06-23T12:14:16.698Z,101953.88
2023-06-23T12:16:47.646Z,101956.76
2023-06-23T12:19:16.869Z,101957.30
2023-06-23T12:25:53.839Z,101949.76
2023-06-23T12:28:28.171Z,101945.98
2023-06-23T12:30:56.872Z,101944.98
2023-06-23T12:33:28.822Z,101948.08
2023-06-23T12:36:06.184Z,101948.64
2023-06-23T12:38:36.337Z,101953.23
2023-06-23T12:41:27.913Z,101946.47
2023-06-23T12:44:00.890Z,101945.58
2023-06-23T12:46:32.306Z,101946.27
2023-06-23T12:49:00.585Z,101946.27
2023-06-23T12:51:38.581Z,101949.06
2023-06-23T12:54:14.212Z,101952.16
2023-06-23T12:56:43.492Z,101948.40
2023-06-23T12:59:11.412Z,101948.80
2023-06-23T13:01:40.221Z,101947.85
2023-06-23T13:04:12.539Z,101942.04
2023-06-23T13:06:40.655Z,101944.02
2023-06-23T13:09:09.207Z,101939.70
2023-06-23T13:11:37.107Z,101938.58
2023-06-23T13:14:05.229Z,101936.65
2023-06-23T13:16:33.957Z,101937.62
2023-06-23T13:19:01.881Z,101929.77
2023-06-23T13:21:29.966Z,101930.62
2023-06-23T13:24:00.089Z,101930.61
2023-06-23T13:26:28.805Z,101934.09
2023-06-23T13:28:57.357Z,101936.70
2023-06-23T13:31:27.804Z,101934.66
2023-06-23T13:33:56.286Z,101931.60
2023-06-23T13:36:25.617Z,101933.84
2023-06-23T13:38:53.441Z,101930.14
2023-06-23T13:41:21.338Z,101924.98
2023-06-23T13:43:49.113Z,101920.39
2023-06-23T13:46:17.496Z,101916.63
2023-06-23T13:48:48.354Z,101921.39
2023-06-23T13:51:20.284Z,101921.38
2023-06-23T13:53:56.181Z,101918.94
2023-06-23T13:56:36.667Z,101917.36
2023-06-23T13:59:05.540Z,101917.23
2023-06-23T14:01:33.421Z,101917.97
2023-06-23T14:04:01.379Z,101911.51
2023-06-23T14:06:29.349Z,101917.00
2023-06-23T14:08:58.022Z,101916.53
2023-06-23T14:11:25.886Z,101910.23
2023-06-23T14:13:54.235Z,101905.89
2023-06-23T14:16:22.225Z,101903.16
2023-06-23T14:18:52.339Z,101905.00
2023-06-23T14:21:20.151Z,101904.82
2023-06-23T14:23:48.508Z,101907.25
2023-06-23T14:26:16.348Z,101910.48
2023-06-23T14:28:44.624Z,101910.94
2023-06-23T14:31:12.865Z,101912.84
2023-06-23T14:33:40.917Z,101909.92
2023-06-23T14:36:09.067Z,101911.20
2023-06-23T14:38:37.139Z,101909.34
2023-06-23T14:41:05.380Z,101914.89
2023-06-23T14:43:33.838Z,101916.30
2023-06-23T14:46:04.146Z,101917.33
2023-06-23T14:48:33.079Z,101914.05
2023-06-23T14:51:01.095Z,101913.14
2023-06-23T14:53:29.902Z,101912.66
2023-06-23T14:55:58.749Z,101915.19
2023-06-23T14:58:27.716Z,101917.13
2023-06-23T15:00:56.050Z,101915.14
2023-06-23T15:03:26.899Z,101911.45
2023-06-23T15:05:55.373Z,101918.55
2023-06-23T15:08:25.868Z,101921.38
2023-06-23T15:10:58.531Z,101923.88
2023-06-23T15:13:26.549Z,101922.98
2023-06-23T15:15:54.582Z,101924.33
2023-06-23T15:18:22.483Z,101923.66
2023-06-23T15:20:52.905Z,101925.05
2023-06-23T15:23:23.119Z,101919.27
2023-06-23T15:25:51.580Z,101921.53
2023-06-23T15:28:30.271Z,101922.79
2023-06-23T15:30:59.802Z,101931.08
2023-06-23T15:33:30.199Z,101926.23
2023-06-23T15:36:00.194Z,101927.88
2023-06-23T15:38:49.414Z,101926.60
2023-06-23T15:41:18.752Z,101921.24
2023-06-23T15:43:46.774Z,101925.80
2023-06-23T15:46:15.287Z,101926.67
2023-06-23T15:48:43.365Z,101920.56
2023-06-23T15:51:15.659Z,101920.23
2023-06-23T15:53:44.850Z,101916.44
2023-06-23T16:43:10.967Z,101923.82
2023-06-23T16:45:40.403Z,101925.70
2023-06-23T16:48:08.509Z,101925.96
2023-06-23T16:51:41.252Z,101922.02
2023-06-23T16:54:29.980Z,101922.06
2023-06-23T16:57:29.607Z,101923.20
2023-06-23T16:59:57.846Z,101923.52
2023-06-23T17:02:28.899Z,101919.38
2023-06-23T17:04:57.159Z,101919.16
2023-06-23T17:07:25.658Z,101925.08
2023-06-23T17:10:05.957Z,101926.86
2023-06-23T17:12:35.447Z,101923.63
2023-06-23T17:15:03.522Z,101923.46
2023-06-23T17:17:31.485Z,101926.42
2023-06-23T17:19:59.812Z,101930.50
2023-06-23T17:22:28.425Z,101934.80
2023-06-23T17:24:56.866Z,101938.91
2023-06-23T17:27:24.700Z,101939.45
2023-06-23T17:29:53.973Z,101940.40
2023-06-23T17:32:22.015Z,101937.04
2023-06-23T17:34:59.877Z,101942.65
2023-06-23T17:37:28.731Z,101943.69
2023-06-23T17:39:56.557Z,101947.11
2023-06-23T17:42:26.470Z,101943.35
2023-06-23T17:44:57.124Z,101944.55
2023-06-23T17:47:26.992Z,101946.29
2023-06-23T17:49:55.380Z,101947.39
2023-06-23T17:52:23.420Z,101941.56
2023-06-23T17:54:54.337Z,101942.59
2023-06-23T17:57:22.614Z,101939.05
2023-06-23T17:59:50.737Z,101937.92
2023-06-23T18:02:21.310Z,101943.94
2023-06-23T18:04:49.741Z,101944.35
2023-06-23T18:07:18.378Z,101950.20
2023-06-23T18:09:46.284Z,101940.73
2023-06-23T18:12:14.920Z,101941.48
2023-06-23T18:14:43.021Z,101942.28
2023-06-23T18:17:10.964Z,101942.02
2023-06-23T18:19:39.221Z,101942.96
2023-06-23T18:22:07.332Z,101945.96
2023-06-23T18:24:36.729Z,101943.02
2023-06-23T18:27:05.168Z,101940.95
2023-06-23T18:29:33.482Z,101943.39
2023-06-23T18:32:13.889Z,101947.81
2023-06-23T18:34:42.131Z,101945.46
2023-06-23T18:37:11.166Z,101944.98
2023-06-23T18:39:38.975Z,101942.05
2023-06-23T18:42:07.901Z,101938.30
2023-06-23T18:44:36.192Z,101935.75
2023-06-23T18:47:04.636Z,101936.59
2023-06-23T18:49:32.676Z,101936.50
2023-06-23T18:52:00.830Z,101936.69
2023-06-23T18:54:28.814Z,101937.76
2023-06-23T18:56:59.518Z,101940.99
2023-06-23T18:59:28.124Z,101940.93
2023-06-23T19:01:56.187Z,101941.69
2023-06-23T19:04:26.316Z,101939.77
2023-06-23T19:06:54.488Z,101940.59
2023-06-23T19:09:22.410Z,101945.08
2023-06-23T19:11:50.453Z,101946.31
2023-06-23T19:14:18.337Z,101946.08
2023-06-23T19:16:46.451Z,101945.31
2023-06-23T19:19:15.975Z,101951.03
2023-06-23T19:21:44.051Z,101945.53
2023-06-23T19:24:11.882Z,101945.52
2023-06-23T19:26:40.097Z,101945.61
2023-06-23T19:29:08.096Z,101944.32
2023-06-23T19:31:36.256Z,101945.15
2023-06-23T19:34:04.604Z,101938.30
2023-06-23T19:36:32.780Z,101935.99
2023-06-23T19:39:00.739Z,101934.78
2023-06-23T19:41:30.275Z,101931.93
2023-06-23T19:43:58.572Z,101936.39
2023-06-23T19:46:27.228Z,101935.14
2023-06-23T19:48:58.601Z,101936.11
2023-06-23T19:51:26.749Z,101936.98
2023-06-23T19:53:55.007Z,101938.90
2023-06-23T19:56:23.224Z,101943.49
2023-06-23T19:58:54.152Z,101947.41
2023-06-23T20:01:22.675Z,101944.81
2023-06-23T20:03:50.917Z,101948.91
2023-06-23T20:06:20.794Z,101951.13
2023-06-23T20:08:48.801Z,101950.80
2023-06-23T20:11:17.836Z,101952.42
2023-06-23T20:13:45.868Z,101955.27
2023-06-23T20:16:14.334Z,101957.32
2023-06-23T20:18:42.628Z,101958.47
2023-06-23T20:21:21.442Z,101957.85
2023-06-23T20:24:05.812Z,101954.89
2023-06-23T20:26:34.004Z,101955.95
2023-06-23T20:29:02.425Z,101954.64
2023-06-23T20:31:42.322Z,101957.50
2023-06-23T20:34:10.359Z,101957.58
2023-06-23T20:36:38.735Z,101958.98
2023-06-23T20:39:09.453Z,101961.99
2023-06-23T20:41:45.824Z,101957.80
2023-06-23T20:44:14.088Z,101954.91
2023-06-23T20:46:42.610Z,101959.38
2023-06-23T20:49:13.665Z,101961.59
2023-06-23T20:51:46.489Z,101966.70
2023-06-23T20:54:15.817Z,101969.45
2023-06-23T20:56:46.832Z,101975.38
2023-06-23T20:59:31.625Z,101972.44
2023-06-23T21:02:05.174Z,101976.95
2023-06-23T21:04:33.494Z,101976.02
2023-06-23T21:07:01.909Z,101977.05
2023-06-23T21:09:30.777Z,101979.06
2023-06-23T21:11:58.800Z,101980.32
2023-06-23T21:14:30.371Z,101978.95
2023-06-23T21:17:01.364Z,101979.14
2023-06-23T21:19:32.666Z,101971.73
2023-06-23T21:22:21.385Z,101967.20
2023-06-23T21:24:55.020Z,101966.05
2023-06-23T21:27:24.536Z,101965.70
2023-06-23T21:29:53.211Z,101967.66
2023-06-23T21:32:21.461Z,101967.70
2023-06-23T21:34:49.466Z,101962.65
2023-06-23T21:37:26.137Z,101965.88
2023-06-23T21:39:54.547Z,101962.30
2023-06-23T21:42:24.423Z,101963.34
2023-06-23T21:44:53.042Z,101964.77
2023-06-23T21:47:21.418Z,101964.06
2023-06-23T21:49:50.055Z,101964.11
2023-06-23T21:52:20.955Z,101964.06
2023-06-23T21:54:48.859Z,101965.70
2023-06-23T21:57:19.637Z,101962.05
2023-06-23T21:59:48.352Z,101962.52
2023-06-23T22:02:20.161Z,101958.20
2023-06-23T22:04:48.250Z,101961.66
2023-06-23T22:07:16.565Z,101962.70
2023-06-23T22:09:46.987Z,101966.80
2023-06-23T22:12:15.107Z,101964.41
2023-06-23T22:14:43.174Z,101968.02
2023-06-23T22:17:11.412Z,101969.05
2023-06-23T22:19:39.577Z,101968.28
2023-06-23T22:22:07.949Z,101972.45
2023-06-23T22:24:53.065Z,101973.95
2023-06-23T22:27:21.234Z,101975.33
2023-06-23T22:29:49.642Z,101979.17
2023-06-23T22:32:17.834Z,101982.02
2023-06-23T22:34:50.425Z,101986.36
2023-06-23T22:37:20.607Z,101986.55
2023-06-23T22:39:49.100Z,101986.34
2023-06-23T22:42:25.200Z,101987.55
2023-06-23T22:44:53.757Z,101993.11
2023-06-23T22:47:21.885Z,101993.79
2023-06-23T22:49:50.287Z,101994.00
2023-06-23T22:52:27.356Z,101991.75
2023-06-23T22:54:55.655Z,101989.73
2023-06-23T22:57:44.486Z,101994.05
2023-06-23T23:00:23.001Z,101990.40
2023-06-23T23:02:55.055Z,101987.94
2023-06-23T23:05:26.348Z,101986.52
2023-06-23T23:08:05.079Z,101986.73
2023-06-23T23:10:33.494Z,101987.36
2023-06-23T23:13:02.242Z,101990.23
2023-06-23T23:15:32.826Z,101994.15
2023-06-23T23:18:13.899Z,101990.55
2023-06-23T23:20:44.436Z,101994.60
2023-06-23T23:23:16.182Z,101995.77
2023-06-23T23:25:56.413Z,101996.40
2023-06-23T23:28:36.398Z,101989.06
2023-06-23T23:31:04.454Z,101990.49
2023-06-23T23:33:35.683Z,101990.33
2023-06-23T23:36:03.761Z,101986.09
2023-06-23T23:38:35.042Z,101982.98
2023-06-23T23:41:15.477Z,101984.41
2023-06-23T23:43:54.413Z,101981.02
2023-06-23T23:46:23.297Z,101980.20
2023-06-23T23:49:06.178Z,101976.05
2023-06-23T23:51:45.868Z,101978.10
2023-06-23T23:54:16.608Z,101978.48
2023-06-23T23:56:48.094Z,101982.17
2023-06-23T23:59:19.394Z,101983.94
